Track Матвеева Алена

Time Latitude Longitude Accuracy (66% radius in meters) Altitude (meters) Speed (km/hour) Bearing (degrees) Battery (%) GPS flag
09:33:08 60.370924 29.556309 8 72 0.29533222317696 238.59545898438 74 1 delete
09:32:55 60.370938 29.556289 8 83 0 315.0373840332 74 1 delete
09:32:42 60.370956 29.556312 8 71 0 315.0373840332 74 1 delete
09:32:29 60.370937 29.556299 6 79 0 315.0373840332 74 1 delete
09:32:17 60.370942 29.556308 12 87 0 315.0373840332 74 1 delete
09:32:02 60.370951 29.556366 4 79 0 315.0373840332 74 1 delete
09:31:55 60.370937 29.556365 6 72 0 315.0373840332 74 1 delete
09:31:49 60.370948 29.556322 12 88 0 315.0373840332 74 1 delete
09:31:37 60.370935 29.556328 4 81 0 315.0373840332 74 1 delete
09:31:24 60.370932 29.556321 6 81 0 315.0373840332 74 1 delete
09:31:11 60.370939 29.556303 6 83 0 315.0373840332 74 1 delete
09:30:58 60.370944 29.556317 4 84 0 315.0373840332 74 1 delete
09:30:45 60.370923 29.556296 6 81 0 315.0373840332 74 1 delete
09:30:37 60.370919 29.556277 8 90 0 315.0373840332 74 1 delete
09:30:32 60.370936 29.556266 16 82 0 315.0373840332 74 1 delete
09:30:20 60.370960 29.556233 6 76 0 293.01025390625 74 1 delete
09:30:19 60.370965 29.556244 8 75 0 293.01025390625 74 1 delete
09:30:12 60.370995 29.556315 12 72 0 293.01025390625 74 1 delete
09:30:07 60.371004 29.556359 8 71 0 293.01025390625 74 1 delete
09:29:54 60.370998 29.556408 6 71 0 293.01025390625 74 1 delete
09:29:49 60.370984 29.556414 8 69 0 293.01025390625 74 1 delete
09:29:41 60.370949 29.556394 6 71 0 216.15869140625 74 1 delete
09:29:29 60.370934 29.556418 6 59 0 216.15869140625 74 1 delete
09:29:28 60.370938 29.556407 8 57 0 216.15869140625 74 1 delete
09:29:22 60.370959 29.556318 8 61 0 216.15869140625 74 1 delete
09:29:17 60.370991 29.556225 12 71 0 216.15869140625 74 1 delete
09:29:16 60.370993 29.556214 6 72 0 216.15869140625 74 1 delete
09:28:59 60.370995 29.556113 8 92 0 216.15869140625 74 1 delete
09:28:56 60.370986 29.556132 6 92 0 216.15869140625 74 1 delete
09:28:49 60.370973 29.556226 6 83 0 216.15869140625 74 1 delete
09:28:47 60.370973 29.556246 6 80 0 216.15869140625 74 1 delete
09:28:35 60.370939 29.556254 8 81 0 216.15869140625 74 1 delete
09:28:24 60.370934 29.556278 6 76 0 216.15869140625 74 1 delete
09:28:22 60.370936 29.556274 6 76 0 216.15869140625 74 1 delete
09:28:15 60.370969 29.556220 6 81 0 216.15869140625 74 1 delete
09:28:10 60.371012 29.556154 6 91 0 216.15869140625 74 1 delete
09:28:04 60.371020 29.556190 8 95 0 216.15869140625 74 1 delete
09:27:57 60.371003 29.556245 6 89 0 216.15869140625 74 1 delete
09:27:44 60.371027 29.556231 8 88 0 216.15869140625 74 1 delete
09:27:31 60.371009 29.556263 8 90 0 216.15869140625 74 1 delete
09:27:29 60.370998 29.556272 6 89 0 216.15869140625 74 1 delete
09:27:18 60.370952 29.556277 6 71 0 216.15869140625 74 1 delete
09:27:07 60.370950 29.556251 4 83 0 216.15869140625 74 1 delete
09:27:06 60.370951 29.556270 6 81 0 216.15869140625 74 1 delete
09:26:53 60.370973 29.556342 6 81 0 216.15869140625 74 1 delete
09:26:44 60.370941 29.556345 8 77 0 216.15869140625 74 1 delete
09:26:41 60.370920 29.556339 6 73 0 216.15869140625 74 1 delete
09:26:32 60.370894 29.556347 6 61 0 216.15869140625 74 1 delete
09:26:28 60.370891 29.556374 4 58 0 216.15869140625 74 1 delete
09:26:16 60.370897 29.556422 12 60 0 216.15869140625 74 1 delete